Flight Track Log - Related Links

Times and Time Zones

All times are in EDT time to prevent confusion due to time zone crossing. See the RBY701 flight status page for this flight to view local times or setup timezone preferences in your user account.

Time Position Orientation Groundspeed Altitude Reporting Facility
EDT Latitude Longitude Course Direction KTS MPH feet Rate Location/Type
Tue 03:53:53 PM 30.3617 -89.0219 69° East 220 253 2,400  Level Houston Center
Tue 03:54:55 PM 30.3889 -88.9392 69° East 257 296 5,200 2,952 Climbing Houston Center
Tue 03:55:57 PM 30.4344 -88.8672 54° Northeast 275 316 8,500 2,758 Climbing Houston Center
Tue 03:56:59 PM 30.4797 -88.7894 56° Northeast 286 329 10,900 2,323 Climbing Houston Center
Tue 03:58:01 PM 30.5306 -88.6997 57° Northeast 324 373 13,300 2,565 Climbing Houston Center
Tue 03:59:03 PM 30.5967 -88.5811 57° Northeast 360 414 16,200 2,371 Climbing Houston Center
Tue 04:00:05 PM 30.6564 -88.4783 56° Northeast 383 441 18,200 1,984 Climbing Houston Center
Tue 04:01:07 PM 30.7186 -88.3694 56° Northeast 403 464 20,300 2,016 Climbing Houston Center
Tue 04:02:10 PM 30.7917 -88.2700 49° Northeast 408 470 22,400 1,762 Climbing Houston Center
Tue 04:03:13 PM 30.8669 -88.1683 49° Northeast 418 481 24,000 1,452 Climbing Houston Center
Tue 04:04:14 PM 30.9558 -88.0525 48° Northeast 430 495 25,400 1,171 Climbing Houston Center
Tue 04:05:16 PM 31.0369 -87.9444 49° Northeast 442 509 26,400 1,210 Climbing Houston Center
Tue 04:06:18 PM 31.1192 -87.8325 49° Northeast 453 521 27,900 1,597 Climbing Houston Center
Tue 04:07:20 PM 31.2203 -87.6942 49° Northeast 465 535 29,700 1,790 Climbing Houston Center
Tue 04:08:22 PM 31.3072 -87.5781 49° Northeast 459 528 31,600 1,536 Climbing Houston Center
Tue 04:09:25 PM 31.3881 -87.4686 49° Northeast 448 516 32,900 785 Climbing Houston Center
Tue 04:10:09 PM 31.4572 -87.3836 46° Northeast 454 522 33,000 58 Climbing Atlanta Center
Tue 04:11:09 PM 31.5375 -87.2719 50° Northeast 449 517 33,000  Level Atlanta Center
Tue 04:12:10 PM 31.6194 -87.1628 49° Northeast 449 517 33,000  Level Atlanta Center
Tue 04:13:09 PM 31.6889 -87.0603 51° Northeast 449 517 33,000  Level Atlanta Center
Tue 04:14:09 PM 31.7667 -86.9506 50° Northeast 443 510 33,000  Level Atlanta Center
Tue 04:15:09 PM 31.8506 -86.8358 49° Northeast 443 510 33,000  Level Atlanta Center
Tue 04:16:09 PM 31.9325 -86.7258 49° Northeast 443 510 33,000  Level Atlanta Center
Tue 04:17:10 PM 32.0269 -86.6036 48° Northeast 443 510 33,000  Level Atlanta Center
Tue 04:18:09 PM 32.1064 -86.4908 50° Northeast 448 516 33,000  Level Atlanta Center
Tue 04:19:09 PM 32.1750 -86.3872 52° Northeast 453 521 33,000  Level Atlanta Center
Tue 04:20:09 PM 32.2653 -86.2594 50° Northeast 453 521 33,000  Level Atlanta Center
Tue 04:21:10 PM 32.2869 -86.0928 81° East 453 521 33,000  Level Atlanta Center
Tue 04:22:09 PM 32.3225 -85.9436 74° East 460 529 33,000 -303 Level Atlanta Center
Tue 04:23:09 PM 32.3664 -85.7994 70° East 460 529 32,400 -800 Descending Atlanta Center
Tue 04:24:09 PM 32.4125 -85.6456 70° East 477 549 31,400 -700 Descending Atlanta Center
Tue 04:25:09 PM 32.4539 -85.4961 72° East 477 549 31,000 -200 Descending Atlanta Center
Tue 04:26:09 PM 32.4933 -85.3442 73° East 477 549 31,000  Level Atlanta Center
Tue 04:27:09 PM 32.5322 -85.1944 73° East 477 549 31,000  Level Atlanta Center
Tue 04:28:09 PM 32.5775 -85.0444 70° East 477 549 31,000  Level Atlanta Center
Tue 04:29:09 PM 32.6161 -84.8922 73° East 482 555 31,000  Level Atlanta Center
Tue 04:30:09 PM 32.6589 -84.7419 71° East 472 543 31,000  Level Atlanta Center
Tue 04:31:09 PM 32.6992 -84.5942 72° East 472 543 31,000 -198 Level Atlanta Center
Tue 04:32:10 PM 32.7375 -84.4439 73° East 472 543 30,600 -700 Descending Atlanta Center
Tue 04:33:09 PM 32.7775 -84.2933 72° East 477 549 29,600 -958 Descending Atlanta Center
Tue 04:34:09 PM 32.8172 -84.1403 73° East 477 549 28,700 -950 Descending Atlanta Center
Tue 04:35:09 PM 32.8592 -83.9869 72° East 477 549 27,700 -1,000 Descending Atlanta Center
Tue 04:36:09 PM 32.8986 -83.8361 73° East 477 549 26,700 -1,050 Descending Atlanta Center
Tue 04:37:09 PM 32.9358 -83.6897 73° East 477 549 25,600 -950 Descending Atlanta Center
Tue 04:38:09 PM 32.9792 -83.5708 66° East 461 531 24,800 -893 Descending Atlanta Center
Tue 04:39:10 PM 33.0142 -83.4319 73° East 442 509 23,800 -1,350 Descending Atlanta Center
Tue 04:40:09 PM 33.0531 -83.2928 72° East 442 509 22,100 -2,168 Descending Atlanta Center
Tue 04:41:09 PM 33.0833 -83.1514 76° East 442 509 19,500 -2,500 Descending Atlanta Center
Tue 04:42:09 PM 33.1178 -83.0169 73° East 429 494 17,100 -2,350 Descending Atlanta Center
Tue 04:43:09 PM 33.1481 -82.8875 74° East 416 479 14,800 -2,231 Descending Atlanta Center
Tue 04:44:10 PM 33.1761 -82.7656 75° East 393 452 12,600 -1,438 Descending Atlanta Center
Tue 04:45:10 PM 33.2042 -82.6536 73° East 366 421 11,900 -655 Descending Atlanta Center
Tue 04:46:09 PM 33.2281 -82.5636 72° East 323 372 11,300 -850 Descending Atlanta Center
Tue 04:47:10 PM 33.2458 -82.4789 76° East 279 321 10,200 -1,350 Descending Atlanta Center
Tue 04:48:09 PM 33.2531 -82.3944 84° East 261 300 8,600 -1,462 Descending Atlanta Center
Tue 04:49:09 PM 33.2603 -82.3072 84° East 255 293 7,300 -1,200 Descending Atlanta Center
Tue 04:50:09 PM 33.2697 -82.2350 81° East 255 293 6,200 -1,650 Descending Atlanta Center
Tue 04:51:09 PM 33.2869 -82.1428 77° East 243 280 4,000 -2,200 Descending Atlanta Center
Tue 04:53:00 PM 33.3699 -81.9645 68° East  Level Estimated
Tue 05:00:00 PM 33.3699 -81.9645 68° East  Level Estimated
Tue 05:01:00 PM 33.3699 -81.9645 68° East  Level Estimated
Tue 05:02:00 PM 33.3699 -81.9645 68° East  Level Estimated
Tue 05:03:00 PM 33.3699 -81.9645 68° East  Level Estimated
Tue 05:04:00 PM 33.3699 -81.9645 68° East  Level Estimated

Login

Don't have an account? Register now (free) for customized features, flight alerts, and more!